Time;durP1;ratioP1;P1;durP2;ratioP2;P2;SDS_P1;SDS_P2;PMS_P1;PMS_P2;Temp;Humidity;BMP_temperature;BMP_pressure;BME280_temperature;BME280_humidity;BME280_pressure;Samples;Min_cycle;Max_cycle;Signal;HPM_P1;HPM_P2
2023/03/31 00:02:14;;;;;;;7.97;3.33;;;;;6.70;95771.00;;;;8370602;28;20661;-68
2023/03/31 00:06:18;;;;;;;5.97;2.90;;;;;6.80;95763.00;;;;8343025;28;20197;-69
2023/03/31 00:10:22;;;;;;;11.73;4.80;;;;;6.70;95770.00;;;;8369310;28;20224;-69
2023/03/31 00:14:34;;;;;;;12.50;5.03;;;;;6.70;95771.00;;;;8369082;28;20288;-69
2023/03/31 00:18:46;;;;;;;8.57;3.77;;;;;6.70;95758.00;;;;8366525;28;20197;-68
2023/03/31 00:22:53;;;;;;;5.37;4.10;;;;;6.60;95754.00;;;;8369081;28;20197;-69
2023/03/31 00:26:56;;;;;;;10.63;3.70;;;;;6.60;95753.00;;;;8368692;28;20204;-69
2023/03/31 00:31:03;;;;;;;13.07;4.77;;;;;6.60;95758.00;;;;8350711;28;20220;-69
2023/03/31 00:35:09;;;;;;;10.03;3.97;;;;;6.60;95755.00;;;;8367063;28;20204;-68
2023/03/31 00:39:16;;;;;;;13.20;4.13;;;;;6.50;95740.00;;;;8370035;28;20615;-69
2023/03/31 00:43:28;;;;;;;16.27;3.97;;;;;6.60;95736.00;;;;8367846;28;20197;-69
2023/03/31 00:47:34;;;;;;;12.47;4.23;;;;;6.60;95741.00;;;;8350739;28;20185;-69
2023/03/31 00:51:38;;;;;;;9.47;3.37;;;;;6.60;95728.00;;;;8368144;28;20610;-68
2023/03/31 00:55:49;;;;;;;13.30;4.07;;;;;6.70;95727.00;;;;8367383;28;20649;-68
2023/03/31 00:59:54;;;;;;;11.80;4.77;;;;;6.70;95720.00;;;;8350146;28;20196;-69
2023/03/31 01:04:01;;;;;;;11.70;4.43;;;;;6.60;95698.00;;;;8367005;28;20224;-69
2023/03/31 01:08:05;;;;;;;16.87;4.67;;;;;6.70;95706.00;;;;8367521;28;20291;-69
2023/03/31 01:12:13;;;;;;;6.97;4.13;;;;;6.70;95698.00;;;;8366890;28;20221;-68
2023/03/31 01:16:16;;;;;;;9.57;4.13;;;;;6.60;95697.00;;;;8366607;28;20196;-68
2023/03/31 01:20:31;;;;;;;12.00;4.50;;;;;6.50;95688.00;;;;8368661;28;20577;-68
2023/03/31 01:25:00;;;;;;;13.20;4.57;;;;;6.50;95676.00;;;;8365971;28;20193;-69
2023/03/31 01:29:12;;;;;;;13.63;5.10;;;;;6.50;95657.00;;;;8367535;28;20213;-68
2023/03/31 01:33:53;;;;;;;12.20;5.10;;;;;6.50;95645.00;;;;8359678;28;20230;-68
2023/03/31 01:38:30;;;;;;;9.87;5.63;;;;;6.40;95646.00;;;;8364952;28;20265;-69
2023/03/31 01:42:38;;;;;;;10.43;5.53;;;;;6.40;95648.00;;;;8332812;28;20200;-69
2023/03/31 01:46:51;;;;;;;10.73;5.20;;;;;6.30;95651.00;;;;8364714;28;20199;-69
2023/03/31 01:51:02;;;;;;;12.60;6.10;;;;;6.30;95647.00;;;;8364339;28;20550;-69
2023/03/31 01:55:11;;;;;;;17.17;6.20;;;;;6.30;95639.00;;;;8365685;28;20270;-68
2023/03/31 01:59:31;;;;;;;13.27;5.53;;;;;6.20;95629.00;;;;8365203;28;20208;-68
2023/03/31 02:03:46;;;;;;;23.37;6.30;;;;;6.20;95619.00;;;;8365991;28;20217;-68
2023/03/31 02:07:55;;;;;;;11.60;5.30;;;;;6.30;95616.00;;;;8365634;28;20197;-68
2023/03/31 02:11:59;;;;;;;18.57;6.60;;;;;6.40;95616.00;;;;8364816;28;20600;-69
2023/03/31 02:16:20;;;;;;;15.67;5.90;;;;;6.50;95610.00;;;;8347974;28;20216;-68
2023/03/31 02:20:32;;;;;;;17.43;5.97;;;;;6.60;95609.00;;;;8365351;28;20180;-69
2023/03/31 02:24:40;;;;;;;11.53;5.50;;;;;6.60;95605.00;;;;8363694;28;20280;-69
2023/03/31 02:28:44;;;;;;;14.40;5.83;;;;;6.60;95605.00;;;;8362486;28;20242;-69
2023/03/31 02:32:55;;;;;;;19.87;6.20;;;;;6.70;95605.00;;;;8363698;28;20269;-69
2023/03/31 02:37:00;;;;;;;9.87;5.57;;;;;6.80;95594.00;;;;8364461;28;20227;-69
2023/03/31 02:41:09;;;;;;;13.83;6.13;;;;;7.00;95584.00;;;;8363763;28;20197;-68
2023/03/31 02:45:40;;;;;;;13.10;5.63;;;;;7.30;95578.00;;;;8362536;28;20619;-69
2023/03/31 02:49:48;;;;;;;16.70;5.93;;;;;7.50;95568.00;;;;8363193;28;20192;-69
2023/03/31 02:54:16;;;;;;;12.60;6.10;;;;;7.70;95557.00;;;;8363052;28;20203;-69
2023/03/31 02:58:38;;;;;;;14.60;5.70;;;;;7.90;95559.00;;;;8363567;28;20262;-68
2023/03/31 03:02:55;;;;;;;13.83;5.87;;;;;8.10;95559.00;;;;8395571;22;20235;-70
2023/03/31 03:07:08;;;;;;;23.73;6.67;;;;;8.30;95558.00;;;;8360940;28;20570;-69
2023/03/31 03:11:20;;;;;;;16.00;5.80;;;;;8.40;95553.00;;;;8369372;28;20281;-69
2023/03/31 03:15:28;;;;;;;17.85;6.13;;;;;8.60;95547.00;;;;8380660;28;20800;-70
2023/03/31 03:19:31;;;;;;;16.98;6.20;;;;;8.80;95540.00;;;;8371437;28;20204;-69
2023/03/31 03:23:36;;;;;;;10.90;6.20;;;;;8.80;95530.00;;;;8380222;28;20212;-70
2023/03/31 03:27:39;;;;;;;14.20;5.87;;;;;8.90;95524.00;;;;8380047;28;20662;-70
2023/03/31 03:31:43;;;;;;;14.32;5.53;;;;;8.90;95522.00;;;;8376035;28;20285;-70
2023/03/31 03:35:46;;;;;;;14.27;5.70;;;;;8.80;95503.00;;;;8356288;28;20221;-70
2023/03/31 03:39:51;;;;;;;23.55;6.25;;;;;8.80;95495.00;;;;8379529;28;20642;-69
2023/03/31 03:43:54;;;;;;;14.83;5.77;;;;;8.90;95497.00;;;;8369476;28;20195;-69
2023/03/31 03:47:59;;;;;;;13.87;7.20;;;;;8.90;95493.00;;;;8364533;28;20238;-71
2023/03/31 03:52:03;;;;;;;17.37;6.30;;;;;9.00;95485.00;;;;8371010;28;20601;-71
2023/03/31 03:56:08;;;;;;;17.70;6.70;;;;;9.00;95473.00;;;;8369960;28;20204;-69
2023/03/31 04:00:12;;;;;;;13.67;6.00;;;;;9.00;95474.00;;;;8364276;28;20709;-70
2023/03/31 04:04:15;;;;;;;12.23;6.20;;;;;9.00;95484.00;;;;8402606;28;20228;-70
2023/03/31 04:08:19;;;;;;;12.40;6.03;;;;;9.00;95465.00;;;;8406248;28;20200;-71
2023/03/31 04:12:26;;;;;;;15.40;6.40;;;;;8.90;95461.00;;;;8408686;28;20227;-69
2023/03/31 04:16:33;;;;;;;14.73;6.30;;;;;8.90;95453.00;;;;8398223;28;20482;-69
2023/03/31 04:20:36;;;;;;;12.73;7.00;;;;;8.90;95444.00;;;;8391460;28;20286;-71
2023/03/31 04:24:44;;;;;;;13.00;6.87;;;;;8.90;95438.00;;;;8395835;28;20207;-71
2023/03/31 04:28:49;;;;;;;16.93;6.87;;;;;9.00;95434.00;;;;8410923;28;20203;-69
2023/03/31 04:32:56;;;;;;;16.30;7.77;;;;;9.00;95434.00;;;;8410466;28;20231;-70
2023/03/31 04:37:01;;;;;;;11.57;6.95;;;;;9.00;95428.00;;;;8403438;28;20204;-70
2023/03/31 04:41:05;;;;;;;15.30;7.30;;;;;9.10;95414.00;;;;8412226;28;20191;-69
2023/03/31 04:45:12;;;;;;;19.25;8.35;;;;;9.10;95407.00;;;;8411322;28;20203;-70
2023/03/31 04:49:18;;;;;;;13.97;7.17;;;;;9.10;95400.00;;;;8398300;28;20203;-70
2023/03/31 04:53:21;;;;;;;13.18;7.07;;;;;9.10;95407.00;;;;8411097;28;20862;-70
2023/03/31 04:57:24;;;;;;;13.18;5.85;;;;;9.10;95404.00;;;;8403908;28;20289;-70
2023/03/31 05:01:31;;;;;;;14.23;7.47;;;;;9.20;95392.00;;;;8413535;28;20711;-70
2023/03/31 05:05:41;;;;;;;12.63;7.28;;;;;9.20;95376.00;;;;8412429;28;20200;-70
2023/03/31 05:09:47;;;;;;;24.15;7.90;;;;;9.20;95355.00;;;;8410882;28;20227;-70
2023/03/31 05:13:50;;;;;;;22.48;9.70;;;;;9.30;95339.00;;;;8406581;28;20235;-69
2023/03/31 05:17:55;;;;;;;17.95;8.82;;;;;9.30;95321.00;;;;8393754;28;20200;-70
2023/03/31 05:21:58;;;;;;;18.52;9.35;;;;;9.20;95308.00;;;;8407131;28;20283;-70
2023/03/31 05:26:03;;;;;;;20.48;8.40;;;;;9.30;95307.00;;;;8413946;28;20197;-71
2023/03/31 05:30:09;;;;;;;21.00;10.17;;;;;9.30;95300.00;;;;8398845;28;20204;-69
2023/03/31 05:34:16;;;;;;;16.73;9.82;;;;;9.30;95284.00;;;;8411385;28;20277;-69
2023/03/31 05:38:21;;;;;;;13.43;7.47;;;;;9.30;95283.00;;;;8386158;28;20211;-69
2023/03/31 05:42:27;;;;;;;13.20;7.50;;;;;9.30;95280.00;;;;8407897;28;20196;-70
2023/03/31 05:46:30;;;;;;;16.17;6.85;;;;;9.30;95280.00;;;;8404848;28;20642;-71
2023/03/31 05:50:34;;;;;;;16.17;7.10;;;;;9.30;95267.00;;;;8390544;28;20288;-72
2023/03/31 05:54:43;;;;;;;13.00;6.67;;;;;9.30;95274.00;;;;8412048;28;20203;-73
2023/03/31 05:58:46;;;;;;;16.08;5.97;;;;;9.30;95262.00;;;;8405796;28;20299;-72
2023/03/31 06:02:51;;;;;;;12.43;6.60;;;;;9.30;95265.00;;;;8398063;28;20247;-71
2023/03/31 06:06:57;;;;;;;16.83;6.90;;;;;9.30;95247.00;;;;8405700;28;20187;-71
2023/03/31 06:11:04;;;;;;;16.38;6.60;;;;;9.40;95243.00;;;;8413787;28;20222;-71
2023/03/31 06:15:10;;;;;;;21.60;7.40;;;;;9.40;95230.00;;;;8389546;28;20195;-72
2023/03/31 06:19:15;;;;;;;15.27;6.88;;;;;9.50;95229.00;;;;8409017;28;20245;-72
2023/03/31 06:23:23;;;;;;;14.47;7.17;;;;;9.60;95216.00;;;;8398182;28;20199;-71
2023/03/31 06:27:26;;;;;;;14.75;7.07;;;;;9.70;95215.00;;;;8401004;28;20898;-71
2023/03/31 06:31:30;;;;;;;15.27;7.03;;;;;9.80;95210.00;;;;8400579;28;20228;-73
2023/03/31 06:35:35;;;;;;;19.23;7.07;;;;;10.00;95201.00;;;;8400275;28;20204;-70
2023/03/31 06:39:44;;;;;;;16.33;7.30;;;;;10.10;95196.00;;;;8414596;28;20274;-70
2023/03/31 06:43:47;;;;;;;15.77;6.28;;;;;10.10;95209.00;;;;8401580;28;20282;-73
2023/03/31 06:47:50;;;;;;;14.70;7.05;;;;;10.10;95204.00;;;;8411351;28;20642;-72
2023/03/31 06:51:54;;;;;;;13.98;6.68;;;;;10.10;95201.00;;;;8397420;28;20275;-72
2023/03/31 06:56:06;;;;;;;12.30;5.78;;;;;10.20;95184.00;;;;8400571;28;20521;-71
2023/03/31 07:00:35;;;;;;;22.73;9.60;;;;;10.30;95192.00;;;;8404621;28;20204;-71
2023/03/31 07:05:01;;;;;;;13.40;6.43;;;;;10.40;95184.00;;;;8391150;28;20639;-70
2023/03/31 07:09:06;;;;;;;13.20;6.07;;;;;10.50;95185.00;;;;8399645;28;20203;-71
2023/03/31 07:13:10;;;;;;;103.60;53.42;;;;;10.50;95188.00;;;;8406099;28;20224;-70
2023/03/31 07:17:13;;;;;;;28.02;13.10;;;;;10.60;95190.00;;;;8380421;28;20204;-70
2023/03/31 07:21:16;;;;;;;21.20;8.50;;;;;10.60;95189.00;;;;8409537;28;20205;-69
2023/03/31 07:25:20;;;;;;;159.73;28.05;;;;;10.70;95188.00;;;;8394805;28;20742;-70
2023/03/31 07:29:28;;;;;;;65.35;19.48;;;;;10.70;95211.00;;;;8409648;28;20199;-69
2023/03/31 07:33:31;;;;;;;22.33;6.63;;;;;10.60;95208.00;;;;8407197;28;20333;-71
2023/03/31 07:37:42;;;;;;;20.98;8.48;;;;;10.50;95194.00;;;;8407814;28;20201;-70
2023/03/31 07:41:48;;;;;;;19.23;7.57;;;;;10.40;95213.00;;;;8402958;28;20225;-73
2023/03/31 07:45:55;;;;;;;16.27;6.93;;;;;10.40;95209.00;;;;8402763;28;20206;-70
2023/03/31 07:49:58;;;;;;;19.00;7.18;;;;;10.30;95211.00;;;;8408592;28;20318;-71
2023/03/31 07:54:04;;;;;;;16.60;7.95;;;;;10.40;95211.00;;;;8420151;28;20705;-71
2023/03/31 07:58:12;;;;;;;17.80;8.57;;;;;10.40;95203.00;;;;8410866;28;20196;-70
2023/03/31 08:02:17;;;;;;;24.02;7.03;;;;;10.40;95197.00;;;;8415289;28;20269;-70
2023/03/31 08:06:23;;;;;;;16.08;7.35;;;;;10.40;95184.00;;;;8411541;28;20203;-70
2023/03/31 08:10:27;;;;;;;20.77;7.50;;;;;10.40;95178.00;;;;8421723;28;20204;-70
2023/03/31 08:14:32;;;;;;;18.23;7.65;;;;;10.40;95182.00;;;;8409147;28;20281;-71
2023/03/31 08:18:45;;;;;;;12.40;7.18;;;;;10.40;95158.00;;;;8409464;28;20209;-73
2023/03/31 08:22:48;;;;;;;17.98;6.82;;;;;10.40;95148.00;;;;8408437;28;20287;-72
2023/03/31 08:26:53;;;;;;;17.15;6.63;;;;;10.40;95126.00;;;;8406544;28;20195;-72
2023/03/31 08:31:11;;;;;;;16.65;6.18;;;;;10.30;95120.00;;;;8416381;28;20188;-72
2023/03/31 08:35:16;;;;;;;16.75;7.70;;;;;10.30;95091.00;;;;8409164;28;20251;-72
2023/03/31 08:39:19;;;;;;;28.40;6.72;;;;;10.50;95051.00;;;;8398619;28;20256;-72
2023/03/31 08:43:29;;;;;;;14.88;7.07;;;;;10.70;95043.00;;;;8407242;28;20633;-71
2023/03/31 08:47:37;;;;;;;14.10;7.15;;;;;10.70;95052.00;;;;8409666;28;20709;-72
2023/03/31 08:51:50;;;;;;;18.30;8.00;;;;;10.70;95076.00;;;;8410564;28;20205;-73
2023/03/31 08:55:56;;;;;;;34.13;10.13;;;;;10.60;95117.00;;;;8413992;28;20209;-72
2023/03/31 09:00:05;;;;;;;22.42;8.57;;;;;10.50;95131.00;;;;8405447;28;20211;-74
2023/03/31 09:04:22;;;;;;;22.05;8.50;;;;;10.50;95149.00;;;;8411183;28;20247;-74
2023/03/31 09:08:42;;;;;;;14.38;7.70;;;;;10.50;95167.00;;;;8413869;28;20206;-74
2023/03/31 09:12:55;;;;;;;19.33;8.13;;;;;10.50;95136.00;;;;8406608;28;20224;-74
2023/03/31 09:17:11;;;;;;;14.60;7.18;;;;;10.80;95091.00;;;;8402422;28;20827;-72
2023/03/31 09:21:21;;;;;;;18.60;8.80;;;;;11.10;95084.00;;;;8408777;28;20186;-75
2023/03/31 09:25:28;;;;;;;15.57;7.30;;;;;11.50;95091.00;;;;8409487;28;20198;-74
2023/03/31 09:29:42;;;;;;;18.08;7.97;;;;;11.60;95052.00;;;;8411130;28;20920;-74
2023/03/31 09:33:47;;;;;;;13.82;8.07;;;;;11.90;95041.00;;;;8402626;28;20219;-73
2023/03/31 09:37:54;;;;;;;14.05;6.32;;;;;12.10;95017.00;;;;8396551;28;20200;-73
2023/03/31 09:42:00;;;;;;;8.82;4.95;;;;;12.10;95010.00;;;;8405794;28;20199;-73
2023/03/31 09:46:10;;;;;;;8.45;5.35;;;;;11.90;95028.00;;;;8404164;28;20290;-73
2023/03/31 09:50:15;;;;;;;8.35;4.90;;;;;11.90;95028.00;;;;8392345;28;20206;-74
2023/03/31 09:54:29;;;;;;;10.80;5.60;;;;;12.20;95019.00;;;;8412041;28;20782;-73
2023/03/31 09:58:41;;;;;;;18.35;8.23;;;;;12.30;95034.00;;;;8406128;28;20203;-74
2023/03/31 10:02:49;;;;;;;14.05;7.95;;;;;12.40;95022.00;;;;8412213;28;20227;-73
2023/03/31 10:06:54;;;;;;;36.70;20.00;;;;;12.50;95004.00;;;;8413242;28;20231;-73
2023/03/31 10:11:08;;;;;;;15.60;7.53;;;;;13.00;94986.00;;;;8412550;28;20668;-74
2023/03/31 10:15:22;;;;;;;21.20;9.05;;;;;13.80;94985.00;;;;8415317;28;20760;-73
2023/03/31 10:19:31;;;;;;;25.98;12.02;;;;;14.60;94980.00;;;;8415391;28;20199;-74
2023/03/31 10:23:36;;;;;;;19.88;9.18;;;;;14.80;94979.00;;;;8404936;28;20605;-74
2023/03/31 10:27:47;;;;;;;19.95;10.98;;;;;15.00;94970.00;;;;8415758;28;20269;-73
2023/03/31 10:31:52;;;;;;;12.73;7.78;;;;;14.70;94978.00;;;;8409060;28;20199;-74
2023/03/31 10:35:59;;;;;;;11.35;6.60;;;;;14.60;94968.00;;;;8407412;28;20219;-73
2023/03/31 10:40:12;;;;;;;10.43;5.03;;;;;14.80;94955.00;;;;8414209;28;20203;-73
2023/03/31 10:44:37;;;;;;;8.65;4.82;;;;;14.50;94952.00;;;;8404135;28;20203;-73
2023/03/31 10:48:43;;;;;;;7.97;5.50;;;;;14.70;94953.00;;;;8401472;28;20196;-73
2023/03/31 10:52:49;;;;;;;7.18;5.20;;;;;15.50;94932.00;;;;8411072;28;20775;-73
2023/03/31 10:56:54;;;;;;;8.95;4.13;;;;;16.00;94938.00;;;;8403869;28;20199;-74
2023/03/31 11:01:15;;;;;;;9.20;3.80;;;;;16.20;94945.00;;;;8403628;28;20210;-73
2023/03/31 11:05:28;;;;;;;5.70;3.58;;;;;16.30;94931.00;;;;8409858;28;20229;-73
2023/03/31 11:09:48;;;;;;;7.07;4.00;;;;;16.10;94932.00;;;;8400811;28;20274;-74
2023/03/31 11:13:58;;;;;;;5.95;3.60;;;;;16.00;94916.00;;;;8396598;28;20696;-74
2023/03/31 11:18:17;;;;;;;4.38;2.85;;;;;16.30;94902.00;;;;8398082;28;20257;-73
2023/03/31 11:22:29;;;;;;;5.75;3.15;;;;;16.40;94889.00;;;;8400686;28;20257;-73
2023/03/31 11:26:42;;;;;;;4.93;2.75;;;;;16.90;94905.00;;;;8402532;28;20237;-74
2023/03/31 11:30:52;;;;;;;4.68;2.55;;;;;17.30;94888.00;;;;8413289;28;20292;-74
2023/03/31 11:35:13;;;;;;;3.90;2.30;;;;;16.60;94882.00;;;;8416457;28;20231;-73
2023/03/31 11:39:33;;;;;;;2.25;1.98;;;;;16.10;94886.00;;;;8407381;28;20233;-74
2023/03/31 11:43:42;;;;;;;2.63;2.25;;;;;15.60;94891.00;;;;8410220;28;20634;-75
2023/03/31 11:47:55;;;;;;;4.35;2.17;;;;;15.40;94892.00;;;;8419402;28;20199;-74
2023/03/31 11:52:01;;;;;;;2.95;2.10;;;;;15.40;94887.00;;;;8419081;28;20287;-73
2023/03/31 11:56:12;;;;;;;4.82;2.20;;;;;15.50;94873.00;;;;8419871;28;20219;-74
2023/03/31 12:00:22;;;;;;;3.70;2.10;;;;;15.70;94878.00;;;;8409225;28;20199;-73
2023/03/31 12:04:35;;;;;;;4.40;2.65;;;;;15.90;94853.00;;;;8405840;28;20231;-74
2023/03/31 12:08:44;;;;;;;3.85;2.58;;;;;15.80;94829.00;;;;8407941;28;20192;-75
2023/03/31 12:12:55;;;;;;;3.80;2.30;;;;;15.80;94842.00;;;;8419856;28;20203;-74
2023/03/31 12:17:04;;;;;;;3.60;2.00;;;;;16.10;94822.00;;;;8411356;28;20199;-74
2023/03/31 12:21:09;;;;;;;4.57;2.00;;;;;16.10;94793.00;;;;8387255;28;20188;-74
2023/03/31 12:25:15;;;;;;;4.38;1.83;;;;;15.70;94792.00;;;;8411291;28;20273;-74
2023/03/31 12:29:30;;;;;;;4.65;1.38;;;;;15.70;94789.00;;;;8413460;28;20253;-75
2023/03/31 12:33:37;;;;;;;5.60;1.50;;;;;15.80;94793.00;;;;8420060;28;20723;-74
2023/03/31 12:38:10;;;;;;;2.53;1.58;;;;;15.70;94784.00;;;;8409724;28;20798;-74
2023/03/31 12:42:36;;;;;;;1.23;1.10;;;;;15.50;94774.00;;;;8401847;28;20287;-74
2023/03/31 12:46:56;;;;;;;1.50;1.40;;;;;15.70;94779.00;;;;8405484;28;20640;-74
2023/03/31 12:51:16;;;;;;;1.38;1.10;;;;;15.90;94764.00;;;;8401623;28;20202;-74
2023/03/31 12:55:37;;;;;;;4.18;1.40;;;;;16.00;94758.00;;;;8398279;28;20219;-75
2023/03/31 12:59:41;;;;;;;3.05;1.30;;;;;16.20;94748.00;;;;8394115;28;20751;-74
2023/03/31 13:03:53;;;;;;;3.83;1.45;;;;;16.40;94732.00;;;;8417837;28;20235;-74
2023/03/31 13:08:00;;;;;;;2.70;1.52;;;;;16.70;94714.00;;;;8406185;28;20751;-74
2023/03/31 13:12:07;;;;;;;4.82;1.42;;;;;17.00;94702.00;;;;8408968;28;20241;-74
2023/03/31 13:16:12;;;;;;;2.15;1.65;;;;;17.30;94699.00;;;;8401631;28;20227;-73
2023/03/31 13:20:30;;;;;;;4.70;1.33;;;;;17.60;94678.00;;;;8407356;28;20341;-73
2023/03/31 13:24:34;;;;;;;8.40;1.70;;;;;17.80;94693.00;;;;8406753;28;20196;-72
2023/03/31 13:28:42;;;;;;;4.28;1.60;;;;;18.00;94695.00;;;;8411311;28;20191;-72
2023/03/31 13:33:08;;;;;;;2.03;1.33;;;;;17.50;94849.00;;;;8392045;28;20852;-71
2023/03/31 13:37:21;;;;;;;1.88;0.85;;;;;14.80;94878.00;;;;8400235;28;20223;-72
2023/03/31 13:41:35;;;;;;;4.13;1.02;;;;;12.90;94897.00;;;;8399003;28;20453;-70
2023/03/31 13:46:10;;;;;;;3.92;1.42;;;;;11.60;94911.00;;;;8403257;28;20207;-72
2023/03/31 13:50:35;;;;;;;149.65;79.95;;;;;10.70;94903.00;;;;8405483;28;20218;-72
2023/03/31 13:55:06;;;;;;;9.52;4.65;;;;;10.10;94854.00;;;;8389301;28;20226;-72
2023/03/31 13:59:31;;;;;;;4.20;2.05;;;;;9.90;94846.00;;;;8400172;28;20203;-72
2023/03/31 14:04:01;;;;;;;9.93;4.10;;;;;9.90;94841.00;;;;8383804;28;20219;-72
2023/03/31 14:08:11;;;;;;;12.65;4.40;;;;;10.00;94845.00;;;;8397069;28;20985;-70
2023/03/31 14:12:29;;;;;;;6.95;1.83;;;;;10.30;94826.00;;;;8401822;28;20195;-71
2023/03/31 14:16:39;;;;;;;2.63;1.33;;;;;10.90;94808.00;;;;8405176;28;20239;-70
2023/03/31 14:20:56;;;;;;;5.35;1.77;;;;;11.20;94804.00;;;;8397663;28;20234;-71
2023/03/31 14:25:09;;;;;;;3.08;1.92;;;;;11.40;94789.00;;;;8397844;28;20200;-71
2023/03/31 14:29:21;;;;;;;5.40;2.50;;;;;12.00;94779.00;;;;8406154;28;20219;-73
2023/03/31 14:33:34;;;;;;;4.10;1.38;;;;;12.40;94774.00;;;;8410061;28;20202;-72
2023/03/31 14:37:37;;;;;;;7.25;1.63;;;;;12.70;94772.00;;;;8407750;28;20298;-71
2023/03/31 14:41:43;;;;;;;7.25;2.08;;;;;12.60;94773.00;;;;8406655;28;20257;-72
2023/03/31 14:45:52;;;;;;;3.92;1.63;;;;;12.50;94786.00;;;;8402765;28;20203;-72
2023/03/31 14:50:03;;;;;;;3.85;1.33;;;;;12.40;94772.00;;;;8406285;28;20192;-73
2023/03/31 14:54:17;;;;;;;4.32;1.38;;;;;12.40;94799.00;;;;8408534;28;20568;-71
2023/03/31 14:58:27;;;;;;;4.38;1.50;;;;;12.80;94778.00;;;;8406490;28;20570;-72
2023/03/31 15:02:35;;;;;;;4.05;1.20;;;;;13.00;94787.00;;;;8402718;28;20235;-72
2023/03/31 15:06:42;;;;;;;6.60;1.60;;;;;13.10;94783.00;;;;8408847;28;20207;-71
2023/03/31 15:10:50;;;;;;;3.10;1.35;;;;;13.30;94790.00;;;;8410986;28;20199;-72
2023/03/31 15:15:15;;;;;;;1.48;1.25;;;;;13.80;94798.00;;;;8415013;28;20234;-72
2023/03/31 15:19:21;;;;;;;1.17;1.08;;;;;14.10;94771.00;;;;8413977;28;20248;-72
2023/03/31 15:23:27;;;;;;;1.17;1.13;;;;;14.30;94775.00;;;;8415334;28;20196;-72
2023/03/31 15:27:40;;;;;;;1.85;1.00;;;;;14.30;94763.00;;;;8412296;28;20203;-72
2023/03/31 15:31:48;;;;;;;5.28;1.40;;;;;14.30;94760.00;;;;8409487;28;20251;-72
2023/03/31 15:35:53;;;;;;;3.17;1.30;;;;;14.30;94764.00;;;;8410213;28;20277;-72
2023/03/31 15:39:59;;;;;;;3.92;1.30;;;;;14.20;94763.00;;;;8408989;28;20200;-72
2023/03/31 15:44:07;;;;;;;3.47;1.23;;;;;14.30;94769.00;;;;8414563;28;20195;-72
2023/03/31 15:48:17;;;;;;;3.20;1.33;;;;;14.10;94765.00;;;;8404961;28;20191;-72
2023/03/31 15:52:27;;;;;;;4.20;1.27;;;;;13.80;94761.00;;;;8409298;28;20284;-72
2023/03/31 15:56:34;;;;;;;3.83;1.35;;;;;13.40;94749.00;;;;8409290;28;20322;-72
2023/03/31 16:00:50;;;;;;;5.30;1.40;;;;;13.10;94759.00;;;;8414297;28;20229;-72
2023/03/31 16:04:56;;;;;;;6.63;2.67;;;;;12.90;94766.00;;;;8415699;28;20619;-72
2023/03/31 16:09:06;;;;;;;2.58;1.40;;;;;12.90;94774.00;;;;8411107;28;20209;-72
2023/03/31 16:13:16;;;;;;;6.28;1.40;;;;;12.90;94769.00;;;;8414757;28;20695;-72
2023/03/31 16:17:29;;;;;;;3.55;1.30;;;;;13.00;94765.00;;;;8421032;28;20227;-72
2023/03/31 16:21:37;;;;;;;3.60;1.30;;;;;13.10;94766.00;;;;8418173;28;20609;-72
2023/03/31 16:25:45;;;;;;;4.57;1.25;;;;;13.10;94759.00;;;;8421607;28;20240;-72
2023/03/31 16:29:48;;;;;;;6.72;1.33;;;;;13.10;94776.00;;;;8422322;28;20328;-72
2023/03/31 16:33:56;;;;;;;1.52;1.08;;;;;13.00;94767.00;;;;8419607;28;20228;-72
2023/03/31 16:38:01;;;;;;;4.65;1.50;;;;;12.80;94762.00;;;;8421738;28;20273;-72
2023/03/31 16:42:06;;;;;;;1.80;1.30;;;;;12.70;94767.00;;;;8421176;28;20191;-72
2023/03/31 16:46:09;;;;;;;4.43;1.55;;;;;12.60;94778.00;;;;8411516;28;20200;-72
2023/03/31 16:50:13;;;;;;;4.55;1.30;;;;;12.60;94786.00;;;;8412504;28;20199;-72
2023/03/31 16:54:17;;;;;;;2.08;1.42;;;;;12.60;94785.00;;;;8401252;28;20205;-72
2023/03/31 16:58:27;;;;;;;1.20;1.10;;;;;12.70;94791.00;;;;8415284;28;20230;-72
2023/03/31 17:02:30;;;;;;;2.70;1.23;;;;;12.80;94790.00;;;;8415832;28;20622;-72
2023/03/31 17:06:34;;;;;;;2.28;1.20;;;;;12.80;94799.00;;;;8409301;28;20195;-72
2023/03/31 17:10:38;;;;;;;2.55;1.20;;;;;12.70;94804.00;;;;8394758;28;20208;-72
2023/03/31 17:14:43;;;;;;;4.32;1.60;;;;;12.70;94802.00;;;;8413412;28;20265;-72
2023/03/31 17:18:57;;;;;;;2.53;1.10;;;;;12.60;94805.00;;;;8413459;28;20197;-72
2023/03/31 17:23:03;;;;;;;3.90;1.20;;;;;12.50;94806.00;;;;8414980;28;20205;-70
2023/03/31 17:27:11;;;;;;;1.25;1.00;;;;;12.40;94812.00;;;;8412549;28;20244;-70
2023/03/31 17:31:17;;;;;;;1.55;1.10;;;;;12.30;94808.00;;;;8415527;28;20253;-71
2023/03/31 17:35:21;;;;;;;6.30;4.50;;;;;12.10;94813.00;;;;8400879;28;20223;-72
2023/03/31 17:39:26;;;;;;;5.32;4.57;;;;;12.00;94823.00;;;;8408731;28;20196;-72
2023/03/31 17:43:30;;;;;;;5.30;4.00;;;;;11.80;94821.00;;;;8405358;28;20565;-72
2023/03/31 17:47:37;;;;;;;8.00;5.38;;;;;11.70;94819.00;;;;8400799;28;20546;-69
2023/03/31 17:51:40;;;;;;;5.90;3.58;;;;;11.60;94824.00;;;;8411468;28;20206;-70
2023/03/31 17:55:44;;;;;;;6.53;5.50;;;;;11.50;94827.00;;;;8398051;28;20305;-70
2023/03/31 17:59:48;;;;;;;18.92;17.13;;;;;11.40;94829.00;;;;8415338;28;20268;-69
2023/03/31 18:03:59;;;;;;;3.00;1.83;;;;;11.30;94827.00;;;;8406502;28;20265;-71
2023/03/31 18:08:02;;;;;;;3.97;1.92;;;;;11.10;94832.00;;;;8406625;28;20202;-70
2023/03/31 18:12:06;;;;;;;4.93;1.80;;;;;11.10;94828.00;;;;8403661;28;20263;-70
2023/03/31 18:16:11;;;;;;;1.70;1.60;;;;;11.00;94830.00;;;;8401214;28;20219;-70
2023/03/31 18:20:17;;;;;;;3.10;2.80;;;;;11.00;94835.00;;;;8405613;28;20225;-70
2023/03/31 18:24:21;;;;;;;5.07;4.63;;;;;11.00;94837.00;;;;8406905;28;20196;-70
2023/03/31 18:28:26;;;;;;;3.22;2.08;;;;;11.00;94833.00;;;;8404336;28;20198;-70
2023/03/31 18:32:29;;;;;;;1.73;1.40;;;;;11.10;94850.00;;;;8398468;28;20223;-70
2023/03/31 18:36:34;;;;;;;1.65;1.40;;;;;11.10;94854.00;;;;8400454;28;20224;-70
2023/03/31 18:40:37;;;;;;;2.58;1.75;;;;;11.10;94850.00;;;;8402225;28;20660;-70
2023/03/31 18:44:41;;;;;;;4.07;1.90;;;;;11.10;94851.00;;;;8385737;28;20298;-70
2023/03/31 18:48:45;;;;;;;2.60;1.30;;;;;11.20;94846.00;;;;8401126;28;20206;-71
2023/03/31 18:52:52;;;;;;;1.42;1.33;;;;;11.30;94853.00;;;;8399624;28;20306;-70
2023/03/31 18:56:58;;;;;;;1.63;1.52;;;;;11.40;94865.00;;;;8403644;28;20236;-71
2023/03/31 19:01:04;;;;;;;1.20;1.20;;;;;11.40;94869.00;;;;8400239;28;20210;-71
2023/03/31 19:05:08;;;;;;;3.65;1.20;;;;;11.50;94876.00;;;;8401806;28;20219;-71
2023/03/31 19:09:16;;;;;;;2.63;1.42;;;;;11.50;94875.00;;;;8404463;28;20283;-71
2023/03/31 19:13:19;;;;;;;1.73;1.38;;;;;11.60;94876.00;;;;8401436;28;20241;-71
2023/03/31 19:17:23;;;;;;;1.30;1.20;;;;;11.60;94866.00;;;;8406151;28;20227;-71
2023/03/31 19:21:31;;;;;;;2.60;1.20;;;;;11.50;94864.00;;;;8410224;28;20192;-71
2023/03/31 19:25:35;;;;;;;2.58;1.25;;;;;11.40;94859.00;;;;8404956;28;20275;-71
2023/03/31 19:29:39;;;;;;;4.38;1.50;;;;;11.30;94869.00;;;;8412670;28;20709;-71
2023/03/31 19:33:43;;;;;;;1.70;1.30;;;;;11.30;94874.00;;;;8410294;28;20331;-70
2023/03/31 19:37:50;;;;;;;3.72;1.50;;;;;11.30;94874.00;;;;8409249;28;20615;-70
2023/03/31 19:41:59;;;;;;;1.27;1.17;;;;;11.20;94878.00;;;;8414429;28;20192;-70
2023/03/31 19:46:03;;;;;;;2.30;1.23;;;;;11.30;94884.00;;;;8404887;28;20210;-71
2023/03/31 19:50:07;;;;;;;2.38;1.20;;;;;11.10;94892.00;;;;8413139;28;20336;-71
2023/03/31 19:54:12;;;;;;;3.80;1.63;;;;;10.80;94885.00;;;;8413237;28;20296;-71
2023/03/31 19:58:22;;;;;;;2.22;1.23;;;;;10.60;94894.00;;;;8405298;28;20717;-71
2023/03/31 20:02:27;;;;;;;1.85;1.20;;;;;10.40;94895.00;;;;8413063;28;20260;-70
2023/03/31 20:06:31;;;;;;;2.92;1.50;;;;;10.40;94897.00;;;;8407542;28;20870;-70
2023/03/31 20:10:34;;;;;;;1.92;1.10;;;;;10.40;94901.00;;;;8413940;28;20208;-70
2023/03/31 20:14:47;;;;;;;4.53;1.50;;;;;10.30;94907.00;;;;8414642;28;20206;-70
2023/03/31 20:18:55;;;;;;;5.93;1.52;;;;;10.10;94921.00;;;;8412762;28;20232;-70
2023/03/31 20:23:02;;;;;;;2.80;1.45;;;;;9.90;94938.00;;;;8405455;28;20247;-69
2023/03/31 20:27:06;;;;;;;3.03;2.13;;;;;9.70;94951.00;;;;8410570;28;20208;-70
2023/03/31 20:31:14;;;;;;;6.55;1.33;;;;;9.50;94939.00;;;;8310920;28;58888;-69
2023/03/31 20:35:19;;;;;;;1.52;1.17;;;;;9.30;94942.00;;;;8306018;28;20190;-69
2023/03/31 20:39:22;;;;;;;1.42;1.20;;;;;9.20;94936.00;;;;8326347;28;20228;-69
2023/03/31 20:43:26;;;;;;;2.50;1.02;;;;;9.10;94938.00;;;;8325575;28;20206;-69